sensor_id;sensor_type;location;lat;lon;timestamp;P1;durP1;ratioP1;P2;durP2;ratioP2
71753;SDS011;59593;51.716;7.016;2023-08-07T00:00:02;2.05;;;0.70;;
71753;SDS011;59593;51.716;7.016;2023-08-07T00:02:29;1.48;;;0.77;;
71753;SDS011;59593;51.716;7.016;2023-08-07T00:20:26;1.15;;;0.75;;
71753;SDS011;59593;51.716;7.016;2023-08-07T00:22:54;3.63;;;0.85;;
71753;SDS011;59593;51.716;7.016;2023-08-07T00:25:20;1.40;;;0.70;;
71753;SDS011;59593;51.716;7.016;2023-08-07T00:27:46;2.45;;;0.80;;
71753;SDS011;59593;51.716;7.016;2023-08-07T00:30:11;2.72;;;0.73;;
71753;SDS011;59593;51.716;7.016;2023-08-07T00:32:37;1.80;;;0.70;;
71753;SDS011;59593;51.716;7.016;2023-08-07T00:35:05;2.58;;;0.80;;
71753;SDS011;59593;51.716;7.016;2023-08-07T00:37:33;2.90;;;0.85;;
71753;SDS011;59593;51.716;7.016;2023-08-07T00:40:01;3.38;;;0.90;;
71753;SDS011;59593;51.716;7.016;2023-08-07T00:42:27;3.30;;;0.90;;
71753;SDS011;59593;51.716;7.016;2023-08-07T00:44:53;2.63;;;1.20;;
71753;SDS011;59593;51.716;7.016;2023-08-07T00:47:19;3.05;;;1.08;;
71753;SDS011;59593;51.716;7.016;2023-08-07T00:49:47;3.85;;;0.90;;
71753;SDS011;59593;51.716;7.016;2023-08-07T00:52:14;2.03;;;0.90;;
71753;SDS011;59593;51.716;7.016;2023-08-07T00:54:40;1.42;;;0.70;;
71753;SDS011;59593;51.716;7.016;2023-08-07T00:57:10;2.55;;;1.00;;
71753;SDS011;59593;51.716;7.016;2023-08-07T00:59:40;2.55;;;1.10;;
71753;SDS011;59593;51.716;7.016;2023-08-07T01:02:05;4.05;;;1.10;;
71753;SDS011;59593;51.716;7.016;2023-08-07T01:21:25;3.75;;;1.65;;
71753;SDS011;59593;51.716;7.016;2023-08-07T01:23:51;7.47;;;1.85;;
71753;SDS011;59593;51.716;7.016;2023-08-07T01:26:17;2.78;;;1.30;;
71753;SDS011;59593;51.716;7.016;2023-08-07T01:29:10;3.70;;;1.30;;
71753;SDS011;59593;51.716;7.016;2023-08-07T01:31:42;3.13;;;1.60;;
71753;SDS011;59593;51.716;7.016;2023-08-07T01:34:15;4.05;;;1.85;;
71753;SDS011;59593;51.716;7.016;2023-08-07T01:37:33;3.30;;;1.58;;
71753;SDS011;59593;51.716;7.016;2023-08-07T01:39:50;3.80;;;1.63;;
71753;SDS011;59593;51.716;7.016;2023-08-07T01:42:19;4.63;;;1.40;;
71753;SDS011;59593;51.716;7.016;2023-08-07T01:44:44;3.65;;;1.20;;
71753;SDS011;59593;51.716;7.016;2023-08-07T01:47:19;4.25;;;1.30;;
71753;SDS011;59593;51.716;7.016;2023-08-07T01:49:45;3.50;;;1.30;;
71753;SDS011;59593;51.716;7.016;2023-08-07T01:52:16;4.15;;;1.40;;
71753;SDS011;59593;51.716;7.016;2023-08-07T01:54:42;3.05;;;1.15;;
71753;SDS011;59593;51.716;7.016;2023-08-07T01:57:15;3.55;;;1.30;;
71753;SDS011;59593;51.716;7.016;2023-08-07T01:59:51;2.90;;;1.10;;
71753;SDS011;59593;51.716;7.016;2023-08-07T02:02:17;2.45;;;1.10;;
71753;SDS011;59593;51.716;7.016;2023-08-07T05:07:02;7.30;;;2.30;;
71753;SDS011;59593;51.716;7.016;2023-08-07T05:09:40;5.45;;;2.08;;
71753;SDS011;59593;51.716;7.016;2023-08-07T05:12:08;4.47;;;2.20;;
71753;SDS011;59593;51.716;7.016;2023-08-07T05:14:37;5.95;;;2.20;;
71753;SDS011;59593;51.716;7.016;2023-08-07T05:17:03;5.40;;;2.20;;
71753;SDS011;59593;51.716;7.016;2023-08-07T05:19:34;8.93;;;2.60;;
71753;SDS011;59593;51.716;7.016;2023-08-07T05:22:00;7.10;;;2.83;;
71753;SDS011;59593;51.716;7.016;2023-08-07T05:24:27;6.35;;;2.58;;
71753;SDS011;59593;51.716;7.016;2023-08-07T05:26:53;6.45;;;2.40;;
71753;SDS011;59593;51.716;7.016;2023-08-07T05:29:21;6.32;;;2.10;;
71753;SDS011;59593;51.716;7.016;2023-08-07T05:31:47;5.03;;;1.97;;
71753;SDS011;59593;51.716;7.016;2023-08-07T05:34:19;7.00;;;2.28;;
71753;SDS011;59593;51.716;7.016;2023-08-07T05:36:51;5.25;;;2.00;;
71753;SDS011;59593;51.716;7.016;2023-08-07T05:39:17;6.60;;;2.40;;
71753;SDS011;59593;51.716;7.016;2023-08-07T05:41:56;5.47;;;2.30;;
71753;SDS011;59593;51.716;7.016;2023-08-07T05:44:26;5.18;;;2.30;;
71753;SDS011;59593;51.716;7.016;2023-08-07T05:47:00;4.88;;;2.58;;
71753;SDS011;59593;51.716;7.016;2023-08-07T05:49:47;6.93;;;2.40;;
71753;SDS011;59593;51.716;7.016;2023-08-07T05:52:16;5.03;;;2.40;;
71753;SDS011;59593;51.716;7.016;2023-08-07T05:54:48;6.72;;;2.47;;
71753;SDS011;59593;51.716;7.016;2023-08-07T05:57:14;8.63;;;2.88;;
71753;SDS011;59593;51.716;7.016;2023-08-07T05:59:42;7.32;;;2.38;;
71753;SDS011;59593;51.716;7.016;2023-08-07T06:02:08;6.00;;;2.20;;
71753;SDS011;59593;51.716;7.016;2023-08-07T06:47:01;4.22;;;1.85;;
71753;SDS011;59593;51.716;7.016;2023-08-07T06:49:26;3.95;;;1.85;;
71753;SDS011;59593;51.716;7.016;2023-08-07T06:51:58;4.78;;;1.85;;
71753;SDS011;59593;51.716;7.016;2023-08-07T06:54:23;4.20;;;1.88;;
71753;SDS011;59593;51.716;7.016;2023-08-07T06:56:49;6.00;;;2.15;;
71753;SDS011;59593;51.716;7.016;2023-08-07T07:01:59;2.97;;;1.67;;
71753;SDS011;59593;51.716;7.016;2023-08-07T07:07:03;3.08;;;1.92;;
71753;SDS011;59593;51.716;7.016;2023-08-07T07:13:46;4.35;;;1.90;;
71753;SDS011;59593;51.716;7.016;2023-08-07T07:16:20;4.32;;;1.80;;
71753;SDS011;59593;51.716;7.016;2023-08-07T07:19:07;4.88;;;2.40;;
71753;SDS011;59593;51.716;7.016;2023-08-07T07:21:34;3.17;;;1.92;;
71753;SDS011;59593;51.716;7.016;2023-08-07T07:24:09;4.60;;;1.92;;
71753;SDS011;59593;51.716;7.016;2023-08-07T07:27:05;3.75;;;1.70;;
71753;SDS011;59593;51.716;7.016;2023-08-07T07:29:31;5.55;;;1.67;;
71753;SDS011;59593;51.716;7.016;2023-08-07T07:31:58;2.22;;;1.83;;
71753;SDS011;59593;51.716;7.016;2023-08-07T07:34:24;4.60;;;1.90;;
71753;SDS011;59593;51.716;7.016;2023-08-07T07:36:50;4.45;;;1.85;;
71753;SDS011;59593;51.716;7.016;2023-08-07T07:39:16;5.85;;;2.38;;
71753;SDS011;59593;51.716;7.016;2023-08-07T07:41:42;5.43;;;2.20;;
71753;SDS011;59593;51.716;7.016;2023-08-07T07:44:08;6.95;;;2.30;;
71753;SDS011;59593;51.716;7.016;2023-08-07T07:46:33;6.95;;;2.65;;
71753;SDS011;59593;51.716;7.016;2023-08-07T07:48:59;4.70;;;2.40;;
71753;SDS011;59593;51.716;7.016;2023-08-07T07:51:28;5.43;;;2.35;;
71753;SDS011;59593;51.716;7.016;2023-08-07T07:53:54;5.90;;;2.60;;
71753;SDS011;59593;51.716;7.016;2023-08-07T07:56:20;5.30;;;2.20;;
71753;SDS011;59593;51.716;7.016;2023-08-07T07:58:47;6.47;;;2.42;;
71753;SDS011;59593;51.716;7.016;2023-08-07T08:01:13;4.60;;;2.00;;
71753;SDS011;59593;51.716;7.016;2023-08-07T08:03:44;3.40;;;2.00;;
71753;SDS011;59593;51.716;7.016;2023-08-07T08:06:13;3.55;;;1.55;;
71753;SDS011;59593;51.716;7.016;2023-08-07T08:08:39;3.42;;;1.63;;
71753;SDS011;59593;51.716;7.016;2023-08-07T08:11:09;5.15;;;2.30;;
71753;SDS011;59593;51.716;7.016;2023-08-07T08:13:38;7.95;;;2.40;;
71753;SDS011;59593;51.716;7.016;2023-08-07T08:16:09;4.65;;;2.30;;
71753;SDS011;59593;51.716;7.016;2023-08-07T08:18:35;5.85;;;2.40;;
71753;SDS011;59593;51.716;7.016;2023-08-07T08:21:00;4.90;;;1.92;;
71753;SDS011;59593;51.716;7.016;2023-08-07T08:23:29;7.45;;;2.50;;
71753;SDS011;59593;51.716;7.016;2023-08-07T08:25:55;4.35;;;2.13;;
71753;SDS011;59593;51.716;7.016;2023-08-07T08:28:21;8.80;;;2.42;;
71753;SDS011;59593;51.716;7.016;2023-08-07T08:30:48;6.40;;;2.58;;
71753;SDS011;59593;51.716;7.016;2023-08-07T08:33:16;8.93;;;3.20;;
71753;SDS011;59593;51.716;7.016;2023-08-07T08:35:44;9.68;;;3.22;;
71753;SDS011;59593;51.716;7.016;2023-08-07T08:38:14;6.22;;;2.97;;
71753;SDS011;59593;51.716;7.016;2023-08-07T08:40:49;8.55;;;3.38;;
71753;SDS011;59593;51.716;7.016;2023-08-07T08:43:23;12.77;;;3.83;;
71753;SDS011;59593;51.716;7.016;2023-08-07T08:46:07;11.63;;;3.65;;
71753;SDS011;59593;51.716;7.016;2023-08-07T08:48:47;9.88;;;3.65;;
71753;SDS011;59593;51.716;7.016;2023-08-07T08:51:16;10.90;;;3.88;;
71753;SDS011;59593;51.716;7.016;2023-08-07T08:53:44;9.45;;;3.60;;
71753;SDS011;59593;51.716;7.016;2023-08-07T08:56:25;11.13;;;4.07;;
71753;SDS011;59593;51.716;7.016;2023-08-07T08:58:53;12.73;;;4.32;;
71753;SDS011;59593;51.716;7.016;2023-08-07T09:01:24;14.85;;;3.60;;
71753;SDS011;59593;51.716;7.016;2023-08-07T09:09:04;9.10;;;3.45;;
71753;SDS011;59593;51.716;7.016;2023-08-07T09:11:38;10.38;;;3.78;;
71753;SDS011;59593;51.716;7.016;2023-08-07T09:14:39;10.93;;;3.55;;
71753;SDS011;59593;51.716;7.016;2023-08-07T09:20:26;10.77;;;3.50;;
71753;SDS011;59593;51.716;7.016;2023-08-07T09:22:55;9.82;;;3.95;;
71753;SDS011;59593;51.716;7.016;2023-08-07T09:25:28;12.95;;;3.80;;
71753;SDS011;59593;51.716;7.016;2023-08-07T09:28:04;12.60;;;3.38;;
71753;SDS011;59593;51.716;7.016;2023-08-07T09:30:31;15.80;;;3.42;;
71753;SDS011;59593;51.716;7.016;2023-08-07T09:33:02;10.10;;;3.47;;
71753;SDS011;59593;51.716;7.016;2023-08-07T09:35:29;9.52;;;3.35;;
71753;SDS011;59593;51.716;7.016;2023-08-07T09:37:56;10.73;;;3.42;;
71753;SDS011;59593;51.716;7.016;2023-08-07T09:40:22;9.95;;;3.20;;
71753;SDS011;59593;51.716;7.016;2023-08-07T09:43:01;5.88;;;3.15;;
71753;SDS011;59593;51.716;7.016;2023-08-07T09:45:28;8.60;;;3.05;;
71753;SDS011;59593;51.716;7.016;2023-08-07T09:48:08;8.00;;;3.10;;
71753;SDS011;59593;51.716;7.016;2023-08-07T09:50:50;8.05;;;2.85;;
71753;SDS011;59593;51.716;7.016;2023-08-07T09:53:33;11.68;;;3.30;;
71753;SDS011;59593;51.716;7.016;2023-08-07T09:55:59;9.80;;;3.25;;
71753;SDS011;59593;51.716;7.016;2023-08-07T09:58:31;8.25;;;3.30;;
71753;SDS011;59593;51.716;7.016;2023-08-07T10:01:26;10.13;;;3.30;;
71753;SDS011;59593;51.716;7.016;2023-08-07T10:03:55;10.07;;;2.90;;
71753;SDS011;59593;51.716;7.016;2023-08-07T10:06:41;9.52;;;3.22;;
71753;SDS011;59593;51.716;7.016;2023-08-07T10:15:16;12.85;;;3.83;;
71753;SDS011;59593;51.716;7.016;2023-08-07T10:17:43;7.53;;;3.33;;
71753;SDS011;59593;51.716;7.016;2023-08-07T10:20:30;8.45;;;3.40;;
71753;SDS011;59593;51.716;7.016;2023-08-07T10:23:09;11.80;;;3.35;;
71753;SDS011;59593;51.716;7.016;2023-08-07T10:25:47;11.27;;;3.78;;
71753;SDS011;59593;51.716;7.016;2023-08-07T10:28:26;7.07;;;2.83;;
71753;SDS011;59593;51.716;7.016;2023-08-07T10:31:08;10.35;;;3.00;;
71753;SDS011;59593;51.716;7.016;2023-08-07T10:43:43;9.52;;;3.30;;
71753;SDS011;59593;51.716;7.016;2023-08-07T10:46:16;12.27;;;3.00;;
71753;SDS011;59593;51.716;7.016;2023-08-07T10:48:47;11.93;;;2.97;;
71753;SDS011;59593;51.716;7.016;2023-08-07T10:51:31;10.95;;;2.97;;
71753;SDS011;59593;51.716;7.016;2023-08-07T10:54:10;6.50;;;2.45;;
71753;SDS011;59593;51.716;7.016;2023-08-07T10:56:41;9.10;;;2.70;;
71753;SDS011;59593;51.716;7.016;2023-08-07T10:59:22;6.20;;;3.08;;
71753;SDS011;59593;51.716;7.016;2023-08-07T11:02:08;8.38;;;3.22;;
71753;SDS011;59593;51.716;7.016;2023-08-07T11:15:43;7.88;;;2.88;;
71753;SDS011;59593;51.716;7.016;2023-08-07T11:18:15;8.00;;;2.90;;
71753;SDS011;59593;51.716;7.016;2023-08-07T11:21:12;8.32;;;2.90;;
71753;SDS011;59593;51.716;7.016;2023-08-07T11:23:47;9.18;;;2.90;;
71753;SDS011;59593;51.716;7.016;2023-08-07T11:26:29;8.18;;;2.72;;
71753;SDS011;59593;51.716;7.016;2023-08-07T11:29:05;11.68;;;2.75;;
71753;SDS011;59593;51.716;7.016;2023-08-07T11:31:44;9.52;;;2.80;;
71753;SDS011;59593;51.716;7.016;2023-08-07T11:34:49;5.53;;;2.25;;
71753;SDS011;59593;51.716;7.016;2023-08-07T11:37:50;5.82;;;2.40;;
71753;SDS011;59593;51.716;7.016;2023-08-07T11:40:20;6.75;;;2.20;;
71753;SDS011;59593;51.716;7.016;2023-08-07T11:46:38;9.15;;;2.55;;
71753;SDS011;59593;51.716;7.016;2023-08-07T11:55:28;6.55;;;2.70;;
71753;SDS011;59593;51.716;7.016;2023-08-07T11:58:39;7.78;;;2.47;;
71753;SDS011;59593;51.716;7.016;2023-08-07T17:47:07;5.28;;;2.40;;
71753;SDS011;59593;51.716;7.016;2023-08-07T17:49:37;6.50;;;2.45;;
71753;SDS011;59593;51.716;7.016;2023-08-07T17:55:23;5.68;;;2.38;;
71753;SDS011;59593;51.716;7.016;2023-08-07T17:58:02;4.72;;;2.60;;
71753;SDS011;59593;51.716;7.016;2023-08-07T18:01:00;6.45;;;2.55;;
71753;SDS011;59593;51.716;7.016;2023-08-07T19:03:14;2.97;;;1.92;;
71753;SDS011;59593;51.716;7.016;2023-08-07T19:05:46;3.38;;;1.90;;
71753;SDS011;59593;51.716;7.016;2023-08-07T19:11:13;4.22;;;1.92;;
71753;SDS011;59593;51.716;7.016;2023-08-07T19:17:20;3.83;;;1.60;;
71753;SDS011;59593;51.716;7.016;2023-08-07T19:19:48;2.83;;;1.90;;
71753;SDS011;59593;51.716;7.016;2023-08-07T19:22:20;3.50;;;1.95;;
71753;SDS011;59593;51.716;7.016;2023-08-07T19:24:50;4.43;;;2.20;;
71753;SDS011;59593;51.716;7.016;2023-08-07T19:27:18;3.67;;;2.20;;
71753;SDS011;59593;51.716;7.016;2023-08-07T19:29:52;4.20;;;2.03;;
71753;SDS011;59593;51.716;7.016;2023-08-07T19:32:36;3.53;;;1.95;;
71753;SDS011;59593;51.716;7.016;2023-08-07T19:35:14;3.50;;;1.98;;
71753;SDS011;59593;51.716;7.016;2023-08-07T19:43:52;4.68;;;2.25;;
71753;SDS011;59593;51.716;7.016;2023-08-07T19:46:24;3.97;;;2.20;;
71753;SDS011;59593;51.716;7.016;2023-08-07T19:49:02;3.47;;;2.00;;
71753;SDS011;59593;51.716;7.016;2023-08-07T20:01:04;3.05;;;2.03;;
71753;SDS011;59593;51.716;7.016;2023-08-07T20:03:32;3.78;;;2.22;;
71753;SDS011;59593;51.716;7.016;2023-08-07T20:13:41;4.57;;;2.33;;
71753;SDS011;59593;51.716;7.016;2023-08-07T20:16:18;6.50;;;2.10;;
71753;SDS011;59593;51.716;7.016;2023-08-07T20:18:54;5.28;;;2.05;;
71753;SDS011;59593;51.716;7.016;2023-08-07T20:21:20;7.50;;;2.47;;
71753;SDS011;59593;51.716;7.016;2023-08-07T20:24:10;3.75;;;2.80;;
71753;SDS011;59593;51.716;7.016;2023-08-07T20:26:39;4.63;;;2.90;;
71753;SDS011;59593;51.716;7.016;2023-08-07T20:29:26;5.57;;;2.78;;
71753;SDS011;59593;51.716;7.016;2023-08-07T20:34:56;4.53;;;2.67;;
71753;SDS011;59593;51.716;7.016;2023-08-07T20:37:28;5.95;;;2.78;;
71753;SDS011;59593;51.716;7.016;2023-08-07T20:39:57;5.68;;;2.67;;
71753;SDS011;59593;51.716;7.016;2023-08-07T20:42:24;5.40;;;2.90;;
71753;SDS011;59593;51.716;7.016;2023-08-07T20:44:50;5.05;;;2.53;;
71753;SDS011;59593;51.716;7.016;2023-08-07T20:47:24;5.97;;;3.35;;
71753;SDS011;59593;51.716;7.016;2023-08-07T20:50:13;4.40;;;2.80;;
71753;SDS011;59593;51.716;7.016;2023-08-07T20:52:50;5.63;;;3.03;;
71753;SDS011;59593;51.716;7.016;2023-08-07T20:55:20;6.13;;;3.15;;
71753;SDS011;59593;51.716;7.016;2023-08-07T20:57:49;5.85;;;3.28;;
71753;SDS011;59593;51.716;7.016;2023-08-07T21:00:15;5.13;;;3.30;;
71753;SDS011;59593;51.716;7.016;2023-08-07T21:05:29;4.88;;;3.03;;
71753;SDS011;59593;51.716;7.016;2023-08-07T21:08:01;8.07;;;3.20;;
71753;SDS011;59593;51.716;7.016;2023-08-07T21:10:26;6.25;;;3.03;;
71753;SDS011;59593;51.716;7.016;2023-08-07T21:12:52;5.93;;;3.20;;
71753;SDS011;59593;51.716;7.016;2023-08-07T21:15:20;6.65;;;3.10;;
71753;SDS011;59593;51.716;7.016;2023-08-07T21:17:46;4.22;;;3.05;;
71753;SDS011;59593;51.716;7.016;2023-08-07T21:20:15;4.72;;;2.90;;
71753;SDS011;59593;51.716;7.016;2023-08-07T21:22:41;7.07;;;3.08;;
71753;SDS011;59593;51.716;7.016;2023-08-07T21:28:14;5.70;;;3.33;;
71753;SDS011;59593;51.716;7.016;2023-08-07T21:30:43;5.15;;;3.05;;
71753;SDS011;59593;51.716;7.016;2023-08-07T21:33:09;4.78;;;3.00;;
71753;SDS011;59593;51.716;7.016;2023-08-07T21:35:35;6.53;;;3.10;;
71753;SDS011;59593;51.716;7.016;2023-08-07T21:38:01;4.78;;;3.30;;
71753;SDS011;59593;51.716;7.016;2023-08-07T21:40:26;4.35;;;2.90;;
71753;SDS011;59593;51.716;7.016;2023-08-07T21:42:52;5.38;;;3.13;;
71753;SDS011;59593;51.716;7.016;2023-08-07T21:45:21;5.95;;;3.30;;
71753;SDS011;59593;51.716;7.016;2023-08-07T21:47:49;7.38;;;3.28;;
71753;SDS011;59593;51.716;7.016;2023-08-07T21:50:20;4.05;;;2.88;;
71753;SDS011;59593;51.716;7.016;2023-08-07T21:52:46;4.47;;;3.20;;
71753;SDS011;59593;51.716;7.016;2023-08-07T21:55:12;4.90;;;3.08;;
71753;SDS011;59593;51.716;7.016;2023-08-07T21:57:41;5.85;;;3.28;;
71753;SDS011;59593;51.716;7.016;2023-08-07T22:00:10;4.53;;;3.35;;
71753;SDS011;59593;51.716;7.016;2023-08-07T22:02:39;4.75;;;3.40;;
71753;SDS011;59593;51.716;7.016;2023-08-07T22:05:08;7.50;;;3.45;;
71753;SDS011;59593;51.716;7.016;2023-08-07T22:07:36;6.95;;;3.63;;
71753;SDS011;59593;51.716;7.016;2023-08-07T22:10:05;7.40;;;3.38;;
71753;SDS011;59593;51.716;7.016;2023-08-07T22:12:33;4.00;;;3.25;;
71753;SDS011;59593;51.716;7.016;2023-08-07T22:15:00;6.50;;;3.40;;
71753;SDS011;59593;51.716;7.016;2023-08-07T22:17:33;8.57;;;4.03;;
71753;SDS011;59593;51.716;7.016;2023-08-07T22:19:59;7.15;;;3.60;;
71753;SDS011;59593;51.716;7.016;2023-08-07T22:22:25;7.80;;;3.65;;
71753;SDS011;59593;51.716;7.016;2023-08-07T22:24:51;6.40;;;3.78;;
71753;SDS011;59593;51.716;7.016;2023-08-07T22:27:20;5.35;;;3.17;;
71753;SDS011;59593;51.716;7.016;2023-08-07T22:29:46;4.53;;;3.30;;
71753;SDS011;59593;51.716;7.016;2023-08-07T22:32:14;3.60;;;2.85;;
71753;SDS011;59593;51.716;7.016;2023-08-07T22:34:40;9.02;;;3.38;;
71753;SDS011;59593;51.716;7.016;2023-08-07T22:37:06;3.97;;;3.17;;
71753;SDS011;59593;51.716;7.016;2023-08-07T22:39:41;5.70;;;3.05;;
71753;SDS011;59593;51.716;7.016;2023-08-07T22:42:07;4.72;;;3.22;;
71753;SDS011;59593;51.716;7.016;2023-08-07T22:44:33;3.75;;;2.78;;
71753;SDS011;59593;51.716;7.016;2023-08-07T22:47:01;4.15;;;2.83;;
71753;SDS011;59593;51.716;7.016;2023-08-07T22:49:33;6.00;;;2.90;;
71753;SDS011;59593;51.716;7.016;2023-08-07T22:52:02;6.70;;;2.80;;
71753;SDS011;59593;51.716;7.016;2023-08-07T22:54:28;4.05;;;2.90;;
71753;SDS011;59593;51.716;7.016;2023-08-07T22:56:54;5.97;;;2.83;;
71753;SDS011;59593;51.716;7.016;2023-08-07T22:59:23;4.75;;;3.05;;
71753;SDS011;59593;51.716;7.016;2023-08-07T23:01:48;11.52;;;3.55;;
71753;SDS011;59593;51.716;7.016;2023-08-07T23:04:17;5.72;;;3.00;;
71753;SDS011;59593;51.716;7.016;2023-08-07T23:06:45;4.72;;;2.90;;
71753;SDS011;59593;51.716;7.016;2023-08-07T23:09:11;5.85;;;3.10;;
71753;SDS011;59593;51.716;7.016;2023-08-07T23:11:37;6.22;;;3.17;;
71753;SDS011;59593;51.716;7.016;2023-08-07T23:14:02;6.40;;;3.42;;
71753;SDS011;59593;51.716;7.016;2023-08-07T23:16:31;3.70;;;2.80;;
71753;SDS011;59593;51.716;7.016;2023-08-07T23:18:56;3.88;;;2.90;;
71753;SDS011;59593;51.716;7.016;2023-08-07T23:21:25;8.93;;;3.28;;
71753;SDS011;59593;51.716;7.016;2023-08-07T23:23:51;5.35;;;2.85;;
71753;SDS011;59593;51.716;7.016;2023-08-07T23:26:19;5.22;;;2.80;;
71753;SDS011;59593;51.716;7.016;2023-08-07T23:28:44;5.55;;;2.80;;
71753;SDS011;59593;51.716;7.016;2023-08-07T23:31:14;3.53;;;2.80;;
71753;SDS011;59593;51.716;7.016;2023-08-07T23:33:41;6.30;;;3.13;;
71753;SDS011;59593;51.716;7.016;2023-08-07T23:36:07;5.72;;;2.85;;
71753;SDS011;59593;51.716;7.016;2023-08-07T23:38:37;5.90;;;3.20;;
71753;SDS011;59593;51.716;7.016;2023-08-07T23:41:03;5.28;;;2.95;;
71753;SDS011;59593;51.716;7.016;2023-08-07T23:43:35;6.50;;;3.20;;
71753;SDS011;59593;51.716;7.016;2023-08-07T23:46:01;6.40;;;3.13;;
71753;SDS011;59593;51.716;7.016;2023-08-07T23:48:27;4.10;;;2.90;;
71753;SDS011;59593;51.716;7.016;2023-08-07T23:50:53;11.52;;;3.45;;
71753;SDS011;59593;51.716;7.016;2023-08-07T23:53:20;4.95;;;2.88;;
71753;SDS011;59593;51.716;7.016;2023-08-07T23:55:46;5.97;;;2.83;;
71753;SDS011;59593;51.716;7.016;2023-08-07T23:58:12;4.82;;;3.10;;
